Jacksontown, OH (43030)

11:03 AM EDT on July 07, 2015 (GMT -0400)
APRSWXNET | | Change Station
CLOSE
Current Station
Personal Weather Station
Location: Jacksontown, OH
Elevation: 984 ft
Nearby Weather Stations

Elev 984 ft 39.98 °N, 82.42 °W | Updated 49 minutes ago

Overcast
Overcast
76 °F
Feels Like 76 °F
N
0
Wind Variable Wind from SSW
Gusts 0.0 mph

Today
High -- | Low -- °F
--% Chance of Precip.
Yesterday
High -- | Low -- °F
Precip. -- in
6:07 AM 9:01 PM
Waning Gibbous, 64% visible
Pressure 29.97 in
Visibility 10.0 miles
Clouds Mostly Cloudy 1800 ft
Heat Index 76 °F
Dew Point 73 °F
Humidity 90%
Rainfall in
Snow Depth Not available.
UV 4 out of 12
Pollen 2.80 out of 12
Air Quality Not available.
Flu Activity Not available.
METAR KVTA 071454Z AUTO 21010G16KT 10SM BKN018 27/22 A2999 RMK AO2 SLP147 T02720217 58005

More Conditions Fewer Conditions

Pressure 29.97 in
Visibility 10.0 miles
Clouds Mostly Cloudy 1800 ft
Heat Index 76 °F
Dew Point 73 °F
Humidity 90%
Rainfall in
Snow Depth Not available.
UV 4 out of 12
Pollen 2.80 out of 12
Air Quality Not available.
Flu Activity Not available.
METAR KVTA 071454Z AUTO 21010G16KT 10SM BKN018 27/22 A2999 RMK AO2 SLP147 T02720217 58005

More Conditions Fewer Conditions

10-Day Weather Forecast

×

Almanac

Astronomy

Jul. 07, 2015 Rise Set
Actual Time
Civil Twilight
Nautical Twilight
Astronomical Twilight
Moon
Length of Visible Light
Length of Day
Tomorrow will be .
, % of the Moon is Illuminated

Today's Extremes

State Highs State Lows

Community

WunderPhotos

Upload Photos

1,835,814 photos uploaded!

WunderBlogs® & News

Nearby

Air Quality

  Air Quality AQ Index Pollutant
Not available.

Snow Depth

Station Depth Elevation

Earthquake Activity

City Distance Mag. Time & Date
Minimum magnitude displayed is 2.5.

Coastal Water Temperatures

Place Temperature

Stations

Nearby Weather Stations

Station Location Temp. Windchill Dew Point Humidity Wind Precip. Elev Updated Type